Map

Track Data

SID SEASON NUMBER BASIN SUBBASIN NAME ISO_TIME NATURE LAT LON WMO_WIND WMO_PRES WMO_AGENCY TRACK_TYPE DIST2LAND LANDFALL IFLAG USA_AGENCY USA_ATCF_ID USA_LAT USA_LON USA_RECORD USA_STATUS USA_WIND USA_PRES USA_SSHS USA_R34_NE USA_R34_SE USA_R34_SW USA_R34_NW USA_R50_NE USA_R50_SE USA_R50_SW USA_R50_NW USA_R64_NE USA_R64_SE USA_R64_SW USA_R64_NW USA_POCI USA_ROCI USA_RMW USA_EYE TOKYO_LAT TOKYO_LON TOKYO_GRADE TOKYO_WIND TOKYO_PRES TOKYO_R50_DIR TOKYO_R50_LONG TOKYO_R50_SHORT TOKYO_R30_DIR TOKYO_R30_LONG TOKYO_R30_SHORT TOKYO_LAND CMA_LAT CMA_LON CMA_CAT CMA_WIND CMA_PRES HKO_LAT HKO_LON HKO_CAT HKO_WIND HKO_PRES NEWDELHI_LAT NEWDELHI_LON NEWDELHI_GRADE NEWDELHI_WIND NEWDELHI_PRES NEWDELHI_CI NEWDELHI_DP NEWDELHI_POCI REUNION_LAT REUNION_LON REUNION_TYPE REUNION_WIND REUNION_PRES REUNION_TNUM REUNION_CI REUNION_RMW REUNION_R34_NE REUNION_R34_SE REUNION_R34_SW REUNION_R34_NW REUNION_R50_NE REUNION_R50_SE REUNION_R50_SW REUNION_R50_NW REUNION_R64_NE REUNION_R64_SE REUNION_R64_SW REUNION_R64_NW BOM_LAT BOM_LON BOM_TYPE BOM_WIND BOM_PRES BOM_TNUM BOM_CI BOM_RMW BOM_R34_NE BOM_R34_SE BOM_R34_SW BOM_R34_NW BOM_R50_NE BOM_R50_SE BOM_R50_SW BOM_R50_NW BOM_R64_NE BOM_R64_SE BOM_R64_SW BOM_R64_NW BOM_ROCI BOM_POCI BOM_EYE BOM_POS_METHOD BOM_PRES_METHOD NADI_LAT NADI_LON NADI_CAT NADI_WIND NADI_PRES WELLINGTON_LAT WELLINGTON_LON WELLINGTON_WIND WELLINGTON_PRES DS824_LAT DS824_LON DS824_STAGE DS824_WIND DS824_PRES TD9636_LAT TD9636_LON TD9636_STAGE TD9636_WIND TD9636_PRES TD9635_LAT TD9635_LON TD9635_WIND TD9635_PRES TD9635_ROCI NEUMANN_LAT NEUMANN_LON NEUMANN_CLASS NEUMANN_WIND NEUMANN_PRES MLC_LAT MLC_LON MLC_CLASS MLC_WIND MLC_PRES USA_GUST BOM_GUST BOM_GUST_PER REUNION_GUST REUNION_GUST_PER USA_SEAHGT USA_SEARAD_NE USA_SEARAD_SE USA_SEARAD_SW USA_SEARAD_NW STORM_SPEED STORM_DIR
1912006S20155 1912 1 SP EA NOT_NAMED 1912-01-05 23:00:00 NR -19.6000 155.100 bom main 551 544 ______O_______ -1 -19.6000 155.100 8 175
1912006S20155 1912 1 SP EA NOT_NAMED 1912-01-06 00:00:00 TS -19.7246 155.115 main 544 528 ______P__O____ -1 -19.7370 155.122 -19.7000 155.100 TC 8 172
1912006S20155 1912 1 SP EA NOT_NAMED 1912-01-06 03:00:00 TS -20.1329 155.187 main 528 507 ______P__P____ -1 -20.1475 155.188 -20.1109 155.186 TC 8 170
1912006S20155 1912 1 SP EA NOT_NAMED 1912-01-06 06:00:00 TS -20.5413 155.265 main 516 481 ______P__P____ -1 -20.5567 155.257 -20.5207 155.274 TC 8 170
1912006S20155 1912 1 SP EA NOT_NAMED 1912-01-06 09:00:00 TS -20.9460 155.348 main 481 446 ______P__P____ -1 -20.9636 155.331 -20.9285 155.365 TC 8 169
1912006S20155 1912 1 SP EA NOT_NAMED 1912-01-06 12:00:00 TS -21.3500 155.436 main 436 412 ______P__P____ -1 -21.3669 155.412 -21.3332 155.460 TC 8 168
1912006S20155 1912 1 SP EA NOT_NAMED 1912-01-06 15:00:00 TS -21.7497 155.531 main 412 382 ______P__P____ -1 -21.7658 155.502 -21.7337 155.559 TC 8 167
1912006S20155 1912 1 SP EA NOT_NAMED 1912-01-06 18:00:00 TS -22.1441 155.634 main 382 354 ______P__P____ -1 -22.1593 155.603 -22.1290 155.665 TC 8 166
1912006S20155 1912 1 SP EA NOT_NAMED 1912-01-06 21:00:00 TS -22.5321 155.747 main 354 338 ______P__P____ -1 -22.5462 155.716 -22.5181 155.778 TC 8 164
1912006S20155 1912 1 SP EA NOT_NAMED 1912-01-06 23:00:00 TS -22.7868 155.829 988 bom main 338 338 ______O__P____ -1 -22.8000 155.800 988 4 -22.7736 155.858 TC 8 162
1912006S20155 1912 1 SP EA NOT_NAMED 1912-01-07 00:00:00 TS -22.9128 155.872 main 339 321 ______P__O____ -1 -22.9256 155.845 -22.9000 155.900 TC 50 988 8 161
1912006S20155 1912 1 SP EA NOT_NAMED 1912-01-07 03:00:00 TS -23.2841 156.012 main 321 313 ______P__P____ -1 -23.2951 155.991 -23.2732 156.033 TC 8 159
1912006S20155 1912 1 SP EA NOT_NAMED 1912-01-07 06:00:00 TS -23.6422 156.173 main 323 313 ______P__P____ -1 -23.6507 156.159 -23.6338 156.187 TC 8 155
1912006S20155 1912 1 SP EA NOT_NAMED 1912-01-07 09:00:00 TS -23.9826 156.363 main 323 319 ______P__P____ -1 -23.9877 156.354 -23.9776 156.372 TC 8 151
1912006S20155 1912 1 SP EA NOT_NAMED 1912-01-07 11:00:00 TS -24.1976 156.509 bom main 325 325 ______O__P____ -1 -24.2000 156.500 -24.1952 156.519 TC 7 149
1912006S20155 1912 1 SP EA NOT_NAMED 1912-01-07 12:00:00 TS -24.2993 156.575 main 332 329 ______P__O____ -1 -24.2987 156.551 -24.3000 156.600 TC 7 146
1912006S20155 1912 1 SP EA NOT_NAMED 1912-01-07 15:00:00 TS -24.5877 156.795 main 345 345 ______P__P____ -1 -24.5771 156.713 -24.5984 156.877 TC 7 141
1912006S20155 1912 1 SP EA NOT_NAMED 1912-01-07 18:00:00 TS -24.8596 157.065 main 372 372 ______P__P____ -1 -24.8423 156.935 -24.8770 157.195 TC 8 135
1912006S20155 1912 1 SP EA NOT_NAMED 1912-01-07 21:00:00 TS -25.1243 157.390 main 402 402 ______P__P____ -1 -25.1109 157.277 -25.1422 157.540 TC 8 130
1912006S20155 1912 1 SP EA NOT_NAMED 1912-01-07 23:00:00 TS -25.3048 157.660 bom main 433 433 ______O__P____ -1 -25.3000 157.600 -25.3145 157.779 TC 9 126
1912006S20155 1912 1 SP EA NOT_NAMED 1912-01-08 00:00:00 TS -25.3992 157.817 main 444 444 ______P__O____ -1 -25.3990 157.796 -25.4000 157.900 TC 13 118
1912006S20155 1912 1 SP EA NOT_NAMED 1912-01-08 03:00:00 NR -25.7122 158.511 main 518 518 ______P_______ -1 -25.7122 158.511 TC 15 115
1912006S20155 1912 1 SP EA NOT_NAMED 1912-01-08 06:00:00 NR -26.0414 159.374 main 611 611 ______P_______ -1 -26.0414 159.374 TC 18 112
1912006S20155 1912 1 SP MM NOT_NAMED 1912-01-08 09:00:00 NR -26.3770 160.334 main 691 691 ______P_______ -1 -26.3770 160.334 TC 19 111
1912006S20155 1912 1 SP MM NOT_NAMED 1912-01-08 11:00:00 NR -26.6000 161.000 bom main 703 ______O_______ -1 -26.6000 161.000 TC 19 110

Digital Typhoon Data and Search

About IBTrACS Database

This database is a web-friendly format of International Best Track Archive for Climate Stewardship (IBTrACS), a global best track data archive curated by NOAA dating back to 1842.

Updated: 2021-10-21